Minatitlan Airport
MMMT : now visible

Airfield :











YOU CAN JOIN US ON...

 
LOGIN :

Register | Disclaimer

   EN    FR    IT 

 









Legend :    VFR   Marginal VFR   IFR   Intensive IFR   Very Intensive IFR
Visi :
Ceiling :
>= 8 km
>= 3000ft
5 to 8 km
1000 to 3000 ft
1500m to 5 km
500 to 1000 ft
800 to 1500m
200 to 500 ft
< 800m
< 200 ft
Symbols :   Thunderstorms  Fog  Heavy snow  Heavy precipitations  Wind > 20 kt







- Airport Elevation : 36 ft
- IATA code : MTT


MMMT - Minatitlan

CURRENT METAR :
  • 161355Z 00000KT 5SM BKN010 OVC020 26/24 A2997 RMK 60025 8/5//

EXPIRED METARs :
  • 161317Z 36006KT 5SM -DZ BKN010 OVC030 26/23 A2995 RMK 8/5//
  • 161248Z 36012KT 3SM RA OVC010 25/23 A2993 RMK 60015 8/9//
  • 161145Z 00000KT 10SM SKC 25/23 A2993 RMK SLP211 910 RTS

TAF AMD TAF MMMT
Valid from the 16 at 15:00 until the 17 at 06:00 UTC


161432Z 1615/1706 02005KT 5SM HZ BKN010 OVC020
TEMPO 1615/1617 5SM -RA
FM161700 36010KT 6SM HZ BKN020 BKN070
TEMPO 1617/1621 6SM -RA
FM162100 36010KT 6SM HZ SCT020 BKN080
BECMG 1701/1702 34006KT
No reported NOTAMs for that airfield.



MET'MAP, your aeronautical weather chart ! - Copyright ORBIFLY December 2007 - Disclaimer

ORBIFLY MET'MAP TEAM :

Programming & Development : Alexandra Zaïnal
Concept & Development : Baudouin d'Aumeries
Co-Development & Prog : Marc-Olivier Méhu
Technical & hardware support : Manuel Goepfert

Contact : metmap@orbifly.com




SOURCES & CREDITS :

   NOAA       Earth
Advisory